Time;durP1;ratioP1;P1;durP2;ratioP2;P2;SDS_P1;SDS_P2;PMS_P1;PMS_P2;Temp;Humidity;BMP_temperature;BMP_pressure;BME280_temperature;BME280_humidity;BME280_pressure;Samples;Min_cycle;Max_cycle;Signal;HPM_P1;HPM_P2
2020/12/27 00:00:18;;;;;;;4.90;3.77;;;;;;;9.86;56.93;100222.92;1798746;77;21342;-68
2020/12/27 00:02:46;;;;;;;4.28;3.33;;;;;;;9.86;56.92;100220.77;1792502;79;21737;-69
2020/12/27 00:05:13;;;;;;;4.33;3.02;;;;;;;9.85;56.92;100226.59;1811202;79;21607;-70
2020/12/27 00:07:44;;;;;;;4.22;3.17;;;;;;;9.85;56.90;100229.23;1782787;79;21174;-69
2020/12/27 00:10:11;;;;;;;3.75;3.20;;;;;;;9.84;56.85;100219.09;1786779;79;22241;-69
2020/12/27 00:12:39;;;;;;;4.72;3.25;;;;;;;9.82;56.86;100217.09;1769327;80;21144;-70
2020/12/27 00:15:11;;;;;;;4.15;3.17;;;;;;;9.81;56.82;100222.07;1775100;79;21223;-71
2020/12/27 00:17:45;;;;;;;4.20;3.20;;;;;;;9.81;56.80;100225.19;1755789;80;21556;-68
2020/12/27 00:20:12;;;;;;;4.60;3.40;;;;;;;9.80;56.78;100228.34;1774585;79;21611;-69
2020/12/27 00:22:39;;;;;;;4.55;3.80;;;;;;;9.80;56.76;100228.84;1793522;78;22473;-68
2020/12/27 00:25:06;;;;;;;4.05;3.47;;;;;;;9.80;56.76;100231.50;1776918;78;21607;-69
2020/12/27 00:27:34;;;;;;;4.37;3.85;;;;;;;9.78;56.75;100228.16;1791767;78;21155;-68
2020/12/27 00:30:03;;;;;;;4.17;3.65;;;;;;;9.77;56.74;100227.34;1785509;80;21205;-70
2020/12/27 00:32:30;;;;;;;5.28;3.95;;;;;;;9.78;56.71;100229.49;1761032;79;21148;-71
2020/12/27 00:34:59;;;;;;;4.42;3.72;;;;;;;9.77;56.68;100227.34;1795904;79;21761;-70
2020/12/27 00:37:30;;;;;;;5.40;3.92;;;;;;;9.78;56.67;100237.45;1782405;80;21160;-71
2020/12/27 00:39:58;;;;;;;4.22;3.60;;;;;;;9.77;56.64;100230.46;1774589;79;21170;-71
2020/12/27 00:42:25;;;;;;;4.87;3.45;;;;;;;9.77;56.61;100238.42;1778618;79;21187;-70
2020/12/27 00:44:56;;;;;;;4.92;3.70;;;;;;;9.77;56.61;100239.75;1783478;79;21162;-71
2020/12/27 00:47:23;;;;;;;5.40;4.30;;;;;;;9.76;56.55;100240.25;1783061;79;21198;-71
2020/12/27 00:49:50;;;;;;;4.45;4.00;;;;;;;9.76;56.53;100240.75;1782042;80;21179;-71
2020/12/27 00:52:18;;;;;;;5.12;3.55;;;;;;;9.75;56.55;100235.91;1774350;80;21147;-71
2020/12/27 00:54:45;;;;;;;5.45;3.58;;;;;;;9.75;56.52;100241.72;1805628;79;21052;-69
2020/12/27 00:57:13;;;;;;;5.03;3.87;;;;;;;9.74;56.50;100242.22;1781166;80;21124;-67
2020/12/27 00:59:41;;;;;;;5.10;3.85;;;;;;;9.74;56.50;100244.88;1811337;78;21414;-69
2020/12/27 01:02:09;;;;;;;5.65;3.87;;;;;;;9.74;56.48;100250.18;1805888;78;21127;-71
2020/12/27 01:04:49;;;;;;;5.03;3.90;;;;;;;9.73;56.46;100241.86;1815596;78;21123;-68
2020/12/27 01:07:19;;;;;;;4.85;3.67;;;;;;;9.74;56.45;100244.05;1811523;78;21631;-68
2020/12/27 01:09:48;;;;;;;4.55;3.98;;;;;;;9.72;56.43;100235.41;1805967;78;21201;-69
2020/12/27 01:12:15;;;;;;;4.58;3.60;;;;;;;9.72;56.42;100234.08;1805977;78;21359;-71
2020/12/27 01:14:43;;;;;;;5.25;3.75;;;;;;;9.73;56.41;100233.08;1820141;77;21191;-70
2020/12/27 01:17:12;;;;;;;4.92;3.40;;;;;;;9.72;56.41;100231.42;1794660;78;21162;-69
2020/12/27 01:19:40;;;;;;;4.20;3.67;;;;;;;9.71;56.39;100233.72;1806519;78;21105;-69
2020/12/27 01:22:07;;;;;;;4.40;3.67;;;;;;;9.71;56.37;100228.42;1814512;78;21175;-68
2020/12/27 01:24:45;;;;;;;4.60;3.60;;;;;;;9.75;56.39;100230.61;1801297;79;28877;-68
2020/12/27 01:27:13;;;;;;;4.05;3.30;;;;;;;9.71;56.32;100233.22;1774353;80;21595;-69
2020/12/27 01:29:40;;;;;;;3.90;3.12;;;;;;;9.71;56.31;100233.72;1762286;78;21829;-69
2020/12/27 01:32:09;;;;;;;3.80;3.22;;;;;;;9.71;56.28;100239.03;1777474;78;21174;-69
2020/12/27 01:34:38;;;;;;;4.20;3.47;;;;;;;9.71;56.28;100239.86;1749867;80;21214;-69
2020/12/27 01:37:07;;;;;;;4.28;3.40;;;;;;;9.71;56.24;100253.63;1770506;79;21595;-70
2020/12/27 01:39:38;;;;;;;5.10;3.50;;;;;;;9.70;56.24;100260.75;1785158;79;21221;-70
2020/12/27 01:42:05;;;;;;;4.17;3.52;;;;;;;9.69;56.24;100260.90;1787696;79;21372;-68
2020/12/27 01:44:32;;;;;;;3.92;3.50;;;;;;;9.69;56.23;100263.05;1772503;79;21191;-69
2020/12/27 01:47:00;;;;;;;4.25;3.22;;;;;;;9.69;56.23;100264.37;1781394;79;21056;-69
2020/12/27 01:49:29;;;;;;;4.78;3.92;;;;;;;9.69;56.17;100264.37;1779216;79;21607;-68
2020/12/27 01:51:57;;;;;;;5.58;3.80;;;;;;;9.69;56.19;100267.53;1787979;79;21155;-69
2020/12/27 01:54:27;;;;;;;4.45;3.58;;;;;;;9.68;56.17;100264.52;1782620;79;21215;-69
2020/12/27 01:57:00;;;;;;;3.42;3.12;;;;;;;9.68;56.16;100273.34;1772279;80;21195;-68
2020/12/27 01:59:31;;;;;;;5.25;4.03;;;;;;;9.69;56.12;100278.14;1777892;78;21193;-68
2020/12/27 02:02:01;;;;;;;3.72;3.08;;;;;;;9.68;56.13;100272.48;1790401;78;21146;-69
2020/12/27 02:04:53;;;;;;;4.15;3.33;;;;;;;9.70;56.15;100271.37;1826041;76;28785;-67
2020/12/27 02:07:27;;;;;;;4.28;3.10;;;;;;;9.65;56.10;100276.27;1781343;78;21138;-69
2020/12/27 02:10:02;;;;;;;3.90;3.42;;;;;;;9.64;56.12;100280.75;1775593;78;21337;-68
2020/12/27 02:12:31;;;;;;;4.37;3.08;;;;;;;9.64;56.12;100276.77;1780599;78;21165;-69
2020/12/27 02:14:59;;;;;;;4.67;3.45;;;;;;;9.64;56.11;100283.91;1782263;78;21169;-69
2020/12/27 02:17:28;;;;;;;4.17;3.52;;;;;;;9.64;56.06;100284.73;1791495;78;21131;-71
2020/12/27 02:20:05;;;;;;;4.25;3.47;;;;;;;9.69;56.08;100289.58;1760499;79;28646;-69
2020/12/27 02:22:40;;;;;;;3.90;2.92;;;;;;;9.64;56.07;100297.17;1728324;80;21466;-70
2020/12/27 02:25:17;;;;;;;3.95;3.35;;;;;;;9.63;56.08;100298.97;1737341;82;21630;-69
2020/12/27 02:27:47;;;;;;;3.85;3.40;;;;;;;9.62;56.02;100301.30;1742812;80;21043;-69
2020/12/27 02:30:16;;;;;;;4.22;3.20;;;;;;;9.62;56.05;100299.97;1738951;80;21150;-67
2020/12/27 02:32:44;;;;;;;4.33;3.20;;;;;;;9.62;56.02;100303.95;1727319;82;21184;-67
2020/12/27 02:35:11;;;;;;;4.37;3.87;;;;;;;9.64;55.98;100310.44;1771401;79;21169;-69
2020/12/27 02:37:39;;;;;;;4.12;3.27;;;;;;;9.63;55.96;100314.88;1765646;80;21263;-68
2020/12/27 02:40:08;;;;;;;4.75;3.67;;;;;;;9.63;55.94;100317.53;1759716;80;21050;-69
2020/12/27 02:42:56;;;;;;;3.85;3.35;;;;;;;9.64;55.93;100317.06;1744274;81;21171;-69
2020/12/27 02:45:26;;;;;;;4.72;3.80;;;;;;;9.63;55.92;100322.02;1747916;81;21288;-69
2020/12/27 02:48:12;;;;;;;4.20;3.30;;;;;;;9.62;55.92;100326.49;1748485;81;21166;-70
2020/12/27 02:50:47;;;;;;;4.75;3.20;;;;;;;9.62;55.90;100329.15;1754498;81;21403;-69
2020/12/27 02:53:15;;;;;;;3.50;3.00;;;;;;;9.62;55.90;100331.80;1734664;80;21172;-70
2020/12/27 02:55:45;;;;;;;3.92;3.00;;;;;;;9.62;55.90;100334.45;1744067;79;21173;-70
2020/12/27 02:58:12;;;;;;;4.33;3.92;;;;;;;9.62;55.87;100347.72;1748678;81;21187;-69
2020/12/27 03:00:41;;;;;;;3.90;3.05;;;;;;;9.62;55.86;100346.89;1751271;79;21210;-69
2020/12/27 03:03:28;;;;;;;5.30;3.17;;;;;;;9.61;55.83;100348.69;1742970;79;21200;-68
2020/12/27 03:05:57;;;;;;;3.62;3.25;;;;;;;9.62;55.83;100349.55;1758133;81;21170;-69
2020/12/27 03:08:24;;;;;;;4.72;3.55;;;;;;;9.61;55.79;100353.16;1750667;81;21167;-67
2020/12/27 03:11:10;;;;;;;4.22;3.20;;;;;;;9.61;55.81;100351.84;1762213;81;21162;-67
2020/12/27 03:13:38;;;;;;;4.35;3.27;;;;;;;9.60;55.81;100349.69;1717636;82;21638;-66
2020/12/27 03:16:06;;;;;;;3.87;3.37;;;;;;;9.60;55.80;100354.98;1747931;81;21202;-67
2020/12/27 03:18:43;;;;;;;3.80;3.10;;;;;;;9.64;55.81;100363.49;1763443;79;28744;-71
2020/12/27 03:21:16;;;;;;;3.25;2.95;;;;;;;9.59;55.78;100365.23;1727389;80;21171;-70
2020/12/27 03:23:44;;;;;;;3.55;3.08;;;;;;;9.60;55.72;100364.27;1746423;80;21187;-70
2020/12/27 03:26:14;;;;;;;3.27;2.98;;;;;;;9.60;55.67;100367.39;1763893;80;22206;-70
2020/12/27 03:28:41;;;;;;;4.40;3.05;;;;;;;9.61;55.64;100362.45;1736305;80;21147;-70
2020/12/27 03:31:09;;;;;;;3.33;3.02;;;;;;;9.60;55.62;100359.44;1809263;77;21131;-69
2020/12/27 03:33:37;;;;;;;3.62;2.72;;;;;;;9.61;55.57;100361.95;1799955;78;21133;-70
2020/12/27 03:36:09;;;;;;;3.27;2.95;;;;;;;9.62;55.60;100367.61;1801251;77;21428;-69
2020/12/27 03:38:39;;;;;;;4.83;2.80;;;;;;;9.62;55.56;100371.59;1785069;78;21168;-69
2020/12/27 03:41:25;;;;;;;4.28;2.83;;;;;;;9.62;55.60;100380.88;1807359;77;21147;-69
2020/12/27 03:44:10;;;;;;;4.05;3.15;;;;;;;9.64;55.59;100376.26;1758615;79;28161;-70
2020/12/27 03:46:56;;;;;;;4.03;2.95;;;;;;;9.61;55.55;100384.50;1729703;80;21172;-70
2020/12/27 03:49:33;;;;;;;3.80;3.00;;;;;;;9.64;55.57;100386.05;1766590;79;28304;-72
2020/12/27 03:52:08;;;;;;;3.65;3.27;;;;;;;9.60;55.55;100401.41;1722620;81;21186;-71
2020/12/27 03:54:54;;;;;;;4.70;3.60;;;;;;;9.59;55.55;100396.24;1747268;81;21619;-72
2020/12/27 03:57:40;;;;;;;3.72;3.27;;;;;;;9.59;55.54;100405.03;1750908;81;21148;-71
2020/12/27 04:00:29;;;;;;;3.47;2.75;;;;;;;9.62;55.53;100395.97;1753330;79;28734;-70
2020/12/27 04:02:57;;;;;;;3.15;2.80;;;;;;;9.59;55.51;100400.22;1732224;80;21164;-70
2020/12/27 04:05:25;;;;;;;3.47;2.90;;;;;;;9.58;55.51;100403.37;1724163;82;21252;-71
2020/12/27 04:07:52;;;;;;;3.98;3.05;;;;;;;9.58;55.49;100406.03;1731963;81;21155;-70
2020/12/27 04:10:20;;;;;;;3.92;2.77;;;;;;;9.59;55.46;100407.68;1744966;81;21135;-71
2020/12/27 04:12:49;;;;;;;3.35;2.87;;;;;;;9.60;55.44;100415.14;1785219;79;21097;-71
2020/12/27 04:15:16;;;;;;;4.22;3.42;;;;;;;9.59;55.41;100415.64;1801921;79;21027;-70
2020/12/27 04:17:46;;;;;;;3.92;3.02;;;;;;;9.60;55.36;100416.47;1786381;77;22254;-68
2020/12/27 04:20:15;;;;;;;3.50;3.00;;;;;;;9.60;55.39;100417.80;1789080;77;21138;-70
2020/12/27 04:22:42;;;;;;;3.42;2.80;;;;;;;9.60;55.36;100416.47;1796657;77;22351;-70
2020/12/27 04:25:11;;;;;;;4.00;3.42;;;;;;;9.60;55.32;100413.34;1780150;79;21194;-69
2020/12/27 04:27:39;;;;;;;3.80;3.37;;;;;;;9.61;55.31;100408.88;1783752;79;21109;-68
2020/12/27 04:30:06;;;;;;;3.17;2.85;;;;;;;9.60;55.26;100416.00;1793351;79;21258;-68
2020/12/27 04:32:36;;;;;;;3.85;3.20;;;;;;;9.60;55.26;100423.10;1794422;79;21150;-69
2020/12/27 04:35:06;;;;;;;3.58;2.58;;;;;;;9.61;55.26;100420.81;1788533;79;21170;-69
2020/12/27 04:37:35;;;;;;;4.37;2.80;;;;;;;9.61;55.27;100420.81;1792645;79;21138;-68
2020/12/27 04:40:12;;;;;;;3.83;3.27;;;;;;;9.64;55.22;100422.69;1789044;78;28142;-68
2020/12/27 04:42:42;;;;;;;3.10;2.70;;;;;;;9.62;55.23;100422.49;1787126;79;21116;-67
2020/12/27 04:45:11;;;;;;;3.35;3.05;;;;;;;9.61;55.17;100433.57;1804971;78;21194;-69
2020/12/27 04:47:47;;;;;;;3.22;2.72;;;;;;;9.61;55.14;100434.07;1781782;79;21182;-69
2020/12/27 04:50:31;;;;;;;4.30;3.17;;;;;;;9.64;55.15;100431.97;1759764;79;28249;-70
2020/12/27 04:52:59;;;;;;;3.50;2.80;;;;;;;9.61;55.15;100433.57;1740642;82;21131;-69
2020/12/27 04:55:28;;;;;;;4.72;3.22;;;;;;;9.60;55.09;100446.51;1747089;81;21413;-70
2020/12/27 04:57:57;;;;;;;4.20;3.05;;;;;;;9.60;55.10;100445.65;1698443;82;21153;-70
2020/12/27 05:00:27;;;;;;;3.15;2.60;;;;;;;9.61;55.06;100449.98;1735956;81;21384;-69
2020/12/27 05:03:12;;;;;;;4.47;3.05;;;;;;;9.61;55.08;100440.70;1742669;81;21183;-70
2020/12/27 05:05:43;;;;;;;3.85;2.95;;;;;;;9.60;55.08;100450.48;1776047;79;21170;-68
2020/12/27 05:08:11;;;;;;;3.33;2.75;;;;;;;9.59;55.09;100444.82;1790165;79;22364;-68
2020/12/27 05:10:54;;;;;;;3.65;2.77;;;;;;;9.63;55.07;100445.38;1801978;79;28181;-69
2020/12/27 05:13:22;;;;;;;3.30;2.58;;;;;;;9.59;55.03;100455.43;1806137;79;21084;-69
2020/12/27 05:15:52;;;;;;;3.33;2.52;;;;;;;9.58;55.00;100459.08;1786756;79;21530;-70
2020/12/27 05:18:19;;;;;;;3.50;2.87;;;;;;;9.58;55.01;100457.76;1780391;79;21008;-68
2020/12/27 05:20:48;;;;;;;3.17;2.65;;;;;;;9.59;55.00;100459.91;1784349;79;21615;-68
2020/12/27 05:23:16;;;;;;;3.47;2.72;;;;;;;9.58;55.00;100457.76;1731488;79;21198;-70
2020/12/27 05:26:12;;;;;;;3.67;3.10;;;;;;;9.62;55.03;100456.98;1793365;79;27982;-69
2020/12/27 05:28:43;;;;;;;3.25;2.83;;;;;;;9.82;54.67;100465.70;1771613;78;21171;-69
2020/12/27 05:31:39;;;;;;;2.92;2.52;;;;;;;10.07;54.08;100462.87;1758279;79;28242;-68
2020/12/27 05:34:09;;;;;;;2.87;2.37;;;;;;;9.96;54.16;100467.86;1738777;82;21157;-69
2020/12/27 05:36:57;;;;;;;3.30;2.67;;;;;;;9.89;54.23;100478.74;1741237;81;22117;-69
2020/12/27 05:39:37;;;;;;;3.10;2.80;;;;;;;9.88;54.31;100482.36;1756030;78;28775;-68
2020/12/27 05:42:15;;;;;;;2.98;2.58;;;;;;;9.82;54.34;100480.30;1722204;80;21179;-69
2020/12/27 05:44:42;;;;;;;3.02;2.58;;;;;;;9.79;54.39;100485.88;1741736;80;21392;-69
2020/12/27 05:47:10;;;;;;;4.28;3.17;;;;;;;9.77;54.40;100490.50;1744172;80;21653;-69
2020/12/27 05:49:38;;;;;;;2.85;2.50;;;;;;;9.75;54.43;100493.78;1749816;81;21138;-70
2020/12/27 05:52:15;;;;;;;3.42;2.95;;;;;;;9.74;54.43;100497.44;1752484;79;21150;-66
2020/12/27 05:54:56;;;;;;;3.20;2.90;;;;;;;9.76;54.47;100507.41;1790977;77;28176;-67
2020/12/27 05:57:27;;;;;;;3.70;2.70;;;;;;;9.71;54.45;100517.61;1778388;78;21144;-67
2020/12/27 05:59:56;;;;;;;3.50;2.95;;;;;;;9.69;54.50;100523.05;1789714;78;21603;-69
2020/12/27 06:02:40;;;;;;;2.80;2.40;;;;;;;9.68;54.55;100518.75;1789926;78;21699;-69
2020/12/27 06:05:12;;;;;;;;;;;;;;;9.67;54.54;100519.71;1806874;78;21681;-70
2020/12/27 06:07:45;;;;;;;3.50;2.60;;;;;;;9.65;54.55;100529.13;1806864;78;20287;-69
2020/12/27 06:10:18;;;;;;;3.15;2.50;;;;;;;9.57;54.66;100532.17;1803830;78;21163;-73
2020/12/27 06:13:22;;;;;;;3.52;2.83;;;;;;;9.57;54.67;100535.65;1774489;78;22279;-70
2020/12/27 06:15:59;;;;;;;2.72;2.37;;;;;;;9.58;54.68;100533.36;1774889;78;21986;-72
2020/12/27 06:18:40;;;;;;;4.27;3.60;;;;;;;9.59;54.73;100540.82;1795523;79;27888;-68
2020/12/27 06:21:10;;;;;;;3.45;2.65;;;;;;;9.78;54.46;100552.72;1805919;79;21123;-73
2020/12/27 06:23:42;;;;;;;3.52;3.20;;;;;;;10.00;53.88;100560.82;1781824;80;21251;-64
2020/12/27 06:26:11;;;;;;;3.95;2.77;;;;;;;9.94;53.89;100564.05;1787469;80;21194;-65
2020/12/27 06:28:41;;;;;;;3.87;2.98;;;;;;;9.87;53.99;100560.33;1784687;80;21175;-67
2020/12/27 06:31:17;;;;;;;4.12;3.30;;;;;;;9.84;54.05;100565.91;1783906;80;21179;-70
2020/12/27 06:33:50;;;;;;;4.08;3.20;;;;;;;9.82;54.09;100577.16;1780236;78;21151;-66
2020/12/27 06:36:40;;;;;;;3.98;2.75;;;;;;;9.83;54.12;100578.34;1807199;79;28212;-67
2020/12/27 06:39:25;;;;;;;4.55;3.30;;;;;;;9.77;54.17;100580.72;1798269;79;21183;-66
2020/12/27 06:42:18;;;;;;;4.85;3.40;;;;;;;9.76;54.18;100585.70;1774711;80;21230;-69
2020/12/27 06:45:26;;;;;;;4.00;3.15;;;;;;;9.76;54.22;100587.84;1826136;77;28708;-67
2020/12/27 06:48:30;;;;;;;4.62;3.30;;;;;;;9.70;54.29;100593.73;1776430;78;21191;-67
2020/12/27 06:51:05;;;;;;;4.83;3.43;;;;;;;9.67;55.30;100603.28;1798257;78;21592;-68
2020/12/27 06:53:43;;;;;;;4.60;3.37;;;;;;;9.66;56.74;100597.65;1804933;78;21047;-67
2020/12/27 06:56:37;;;;;;;5.20;3.83;;;;;;;9.70;57.03;100599.03;1804200;79;28231;-66
2020/12/27 06:59:24;;;;;;;3.92;2.92;;;;;;;9.67;57.04;100605.94;1809884;79;21143;-67
2020/12/27 07:02:11;;;;;;;5.72;3.75;;;;;;;9.65;57.05;100602.59;1797764;79;21365;-67
2020/12/27 07:04:37;;;;;;;4.58;3.62;;;;;;;9.65;56.96;100605.24;1749398;82;21163;-67
2020/12/27 07:07:04;;;;;;;4.60;3.45;;;;;;;9.67;56.83;100604.61;1775493;80;21231;-65
2020/12/27 07:09:33;;;;;;;5.83;3.17;;;;;;;9.68;56.76;100606.77;1741579;81;21197;-67
2020/12/27 07:12:11;;;;;;;4.67;3.30;;;;;;;9.68;56.61;100608.09;1695280;82;21648;-68
2020/12/27 07:14:44;;;;;;;5.35;3.70;;;;;;;9.69;56.46;100600.50;1749300;82;21367;-66
2020/12/27 07:17:14;;;;;;;3.58;3.17;;;;;;;9.69;56.32;100601.33;1781114;80;21509;-66
2020/12/27 07:19:41;;;;;;;4.47;3.37;;;;;;;9.71;56.21;100594.56;1700084;82;21130;-66
2020/12/27 07:22:10;;;;;;;4.03;3.33;;;;;;;9.71;56.12;100603.34;1759256;81;21156;-66
2020/12/27 07:24:39;;;;;;;4.45;3.85;;;;;;;9.72;56.00;100607.69;1767188;81;21131;-66
2020/12/27 07:27:10;;;;;;;4.85;4.00;;;;;;;9.73;55.88;100608.52;1728496;81;21657;-68
2020/12/27 07:29:37;;;;;;;4.12;3.60;;;;;;;9.74;55.80;100617.67;1754054;81;21616;-68
2020/12/27 07:32:04;;;;;;;4.25;3.40;;;;;;;9.75;55.69;100618.00;1784327;80;21190;-66
2020/12/27 07:34:32;;;;;;;5.22;3.77;;;;;;;9.76;55.64;100614.38;1753993;81;21190;-67
2020/12/27 07:37:04;;;;;;;5.53;4.05;;;;;;;9.77;55.52;100613.89;1784326;80;21138;-66
2020/12/27 07:39:54;;;;;;;5.87;3.65;;;;;;;9.78;55.49;100618.23;1754059;81;21408;-67
2020/12/27 07:42:24;;;;;;;5.90;4.30;;;;;;;9.79;55.39;100629.17;1784295;80;21122;-67
2020/12/27 07:44:54;;;;;;;4.92;3.85;;;;;;;9.79;55.32;100625.20;1753622;80;21588;-68
2020/12/27 07:47:21;;;;;;;6.85;4.62;;;;;;;9.79;55.31;100623.87;1734235;81;21199;-66
2020/12/27 07:50:04;;;;;;;5.08;4.15;;;;;;;9.80;55.21;100625.56;1762687;81;21155;-66
2020/12/27 07:52:50;;;;;;;5.12;4.42;;;;;;;9.81;55.15;100621.44;1779340;80;22220;-67
2020/12/27 07:55:30;;;;;;;5.67;3.85;;;;;;;9.81;55.09;100620.58;1753919;81;21623;-66
2020/12/27 07:58:07;;;;;;;8.20;4.90;;;;;;;9.80;55.02;100617.59;1765748;80;21102;-68
2020/12/27 08:00:36;;;;;;;5.60;4.20;;;;;;;9.80;55.02;100618.42;1754025;81;21167;-66
2020/12/27 08:03:05;;;;;;;5.47;4.40;;;;;;;9.81;54.99;100627.22;1784276;80;21183;-67
2020/12/27 08:05:33;;;;;;;5.58;4.17;;;;;;;9.82;54.94;100636.38;1751995;81;22041;-67
2020/12/27 08:08:12;;;;;;;6.17;4.33;;;;;;;9.83;54.90;100642.04;1782618;80;21206;-66
2020/12/27 08:10:40;;;;;;;5.00;4.50;;;;;;;9.84;54.85;100641.55;1753475;81;21124;-65
2020/12/27 08:13:07;;;;;;;6.55;5.22;;;;;;;9.85;54.78;100652.52;1783769;80;21550;-69
2020/12/27 08:15:39;;;;;;;5.83;4.35;;;;;;;9.85;54.75;100659.16;1753521;81;21187;-68
2020/12/27 08:18:10;;;;;;;5.40;4.40;;;;;;;9.88;54.68;100665.98;1783787;80;21361;-66
2020/12/27 08:20:48;;;;;;;4.85;3.95;;;;;;;9.88;54.65;100667.31;1753494;81;21115;-66
2020/12/27 08:23:17;;;;;;;6.53;4.35;;;;;;;9.88;54.58;100666.81;1762708;80;21170;-66
2020/12/27 08:25:45;;;;;;;6.17;4.33;;;;;;;9.89;54.53;100668.97;1753454;81;21159;-66
2020/12/27 08:28:15;;;;;;;6.15;4.70;;;;;;;9.88;54.53;100670.80;1783824;80;21139;-66
2020/12/27 08:30:46;;;;;;;5.97;4.50;;;;;;;9.89;54.50;100672.48;1753434;81;22103;-66
2020/12/27 08:33:16;;;;;;;5.83;4.55;;;;;;;9.90;54.48;100677.30;1783765;80;21146;-66
2020/12/27 08:35:49;;;;;;;5.83;4.35;;;;;;;9.91;54.47;100685.59;1753446;81;21192;-65
2020/12/27 08:38:55;;;;;;;4.65;3.90;;;;;;;9.91;54.43;100683.80;1783887;80;21182;-68
2020/12/27 08:41:31;;;;;;;5.25;4.10;;;;;;;9.93;54.41;100680.98;1743784;81;21148;-67
2020/12/27 08:44:25;;;;;;;7.67;5.72;;;;;;;9.91;54.42;100671.00;1783843;80;21368;-67
2020/12/27 08:46:53;;;;;;;6.50;4.45;;;;;;;9.90;54.41;100660.87;1753541;81;21167;-67
2020/12/27 08:49:42;;;;;;;6.08;4.70;;;;;;;9.90;54.40;100669.34;1783712;80;21163;-68
2020/12/27 08:52:21;;;;;;;5.65;4.45;;;;;;;9.91;54.36;100669.67;1753447;81;21160;-66
2020/12/27 08:54:57;;;;;;;6.22;4.97;;;;;;;9.91;54.36;100669.20;1783885;80;21142;-67
2020/12/27 08:57:24;;;;;;;7.03;4.87;;;;;;;9.93;54.35;100658.42;1786545;80;21224;-68
2020/12/27 09:00:01;;;;;;;5.00;4.10;;;;;;;9.93;54.32;100663.27;1786518;80;21607;-67
2020/12/27 09:02:30;;;;;;;5.70;4.50;;;;;;;9.95;54.32;100653.34;1780789;80;21135;-65
2020/12/27 09:05:06;;;;;;;5.53;4.80;;;;;;;9.97;54.27;100663.33;1786528;80;21115;-66
2020/12/27 09:07:43;;;;;;;7.10;4.78;;;;;;;9.98;54.23;100657.02;1786473;80;21099;-66
2020/12/27 09:10:14;;;;;;;5.20;4.70;;;;;;;10.00;54.22;100647.59;1784782;80;22097;-68
2020/12/27 09:12:58;;;;;;;6.70;4.92;;;;;;;10.02;54.18;100649.61;1760203;80;21138;-66
2020/12/27 09:17:43;;;;;;;5.08;4.37;;;;;;;10.12;54.10;100641.63;1774224;79;28748;-67
2020/12/27 09:20:10;;;;;;;6.00;4.37;;;;;;;10.07;54.15;100635.93;1740005;82;21597;-67
2020/12/27 09:22:42;;;;;;;6.42;5.55;;;;;;;10.12;54.09;100631.01;1746245;81;23588;-67
2020/12/27 09:25:10;;;;;;;5.65;4.55;;;;;;;10.16;54.00;100637.23;1731470;81;21663;-66
2020/12/27 09:27:37;;;;;;;5.90;4.75;;;;;;;10.20;53.94;100641.77;1751345;80;21207;-66
2020/12/27 09:30:05;;;;;;;5.62;4.42;;;;;;;10.23;53.86;100639.64;1780973;80;21141;-67
2020/12/27 09:32:35;;;;;;;7.00;5.33;;;;;;;10.25;53.78;100643.48;1780995;80;21173;-69
2020/12/27 09:35:03;;;;;;;6.33;5.10;;;;;;;10.29;53.75;100644.04;1781069;80;22359;-68
2020/12/27 09:37:35;;;;;;;6.85;5.20;;;;;;;10.31;53.71;100641.61;1780970;80;21157;-68
2020/12/27 09:40:03;;;;;;;6.20;4.67;;;;;;;10.34;53.62;100649.30;1774797;80;21168;-67
2020/12/27 09:42:37;;;;;;;7.22;5.50;;;;;;;10.37;53.58;100649.49;1781066;80;21593;-67
2020/12/27 09:45:24;;;;;;;6.55;5.17;;;;;;;10.39;53.52;100651.05;1775359;80;21224;-68
2020/12/27 09:48:02;;;;;;;5.67;4.47;;;;;;;10.41;53.45;100643.77;1781070;80;21354;-71
2020/12/27 09:50:35;;;;;;;6.35;5.15;;;;;;;10.43;53.41;100648.44;1755357;80;21148;-70
2020/12/27 09:53:05;;;;;;;7.58;5.37;;;;;;;10.46;53.36;100654.45;1750323;82;21193;-71
2020/12/27 09:55:35;;;;;;;6.28;5.10;;;;;;;10.48;53.30;100649.32;1739324;81;21803;-70
2020/12/27 09:58:03;;;;;;;6.65;4.85;;;;;;;10.52;53.26;100661.83;1736033;80;21119;-67
2020/12/27 10:00:31;;;;;;;6.28;5.08;;;;;;;10.53;53.20;100658.20;1736138;80;22379;-71
2020/12/27 10:02:58;;;;;;;5.33;4.35;;;;;;;10.55;53.15;100651.75;1737054;82;21195;-72
2020/12/27 10:05:26;;;;;;;6.37;5.08;;;;;;;10.59;53.09;100644.33;1737004;82;21178;-71
2020/12/27 10:07:54;;;;;;;5.90;5.10;;;;;;;10.62;53.06;100649.33;1737028;80;21571;-68
2020/12/27 10:10:22;;;;;;;5.97;5.20;;;;;;;10.65;53.01;100642.91;1735781;80;21197;-71
2020/12/27 10:12:49;;;;;;;5.67;4.85;;;;;;;10.66;52.94;100649.38;1746471;80;22526;-71
2020/12/27 10:15:21;;;;;;;5.58;4.60;;;;;;;10.69;52.93;100656.25;1779622;80;21173;-68
2020/12/27 10:17:48;;;;;;;6.08;4.90;;;;;;;10.70;52.89;100658.77;1777674;80;21620;-66
2020/12/27 10:20:15;;;;;;;6.42;4.47;;;;;;;10.71;52.87;100652.45;1782123;80;21169;-67
2020/12/27 10:22:42;;;;;;;6.40;5.30;;;;;;;10.71;52.79;100653.77;1781692;79;21637;-67
2020/12/27 10:25:10;;;;;;;5.78;4.72;;;;;;;10.72;52.77;100651.48;1777089;80;21359;-67
2020/12/27 10:27:37;;;;;;;6.35;4.60;;;;;;;10.74;52.72;100652.16;1779419;80;21154;-67
2020/12/27 10:30:05;;;;;;;5.30;4.53;;;;;;;10.74;52.66;100656.16;1780925;79;21166;-67
2020/12/27 10:32:33;;;;;;;4.80;3.85;;;;;;;10.74;52.66;100652.16;1778786;80;21134;-68
2020/12/27 10:35:01;;;;;;;6.72;5.00;;;;;;;10.74;52.64;100660.14;1778356;79;21117;-67
2020/12/27 10:37:28;;;;;;;6.35;5.03;;;;;;;10.74;52.64;100649.51;1776215;80;23490;-67
2020/12/27 10:39:55;;;;;;;5.20;4.37;;;;;;;10.74;52.58;100645.52;1776103;80;21956;-66
2020/12/27 10:42:23;;;;;;;5.67;4.37;;;;;;;10.75;52.54;100637.88;1778077;79;21126;-67
2020/12/27 10:44:50;;;;;;;4.97;4.00;;;;;;;10.77;52.51;100641.72;1778395;80;21676;-66
2020/12/27 10:47:17;;;;;;;5.10;4.17;;;;;;;10.80;52.50;100643.59;1776690;80;21616;-67
2020/12/27 10:49:44;;;;;;;6.10;4.17;;;;;;;10.81;52.47;100637.28;1776566;80;21207;-68
2020/12/27 10:52:12;;;;;;;6.62;4.55;;;;;;;10.84;52.44;100645.47;1777176;80;21155;-67
2020/12/27 10:54:39;;;;;;;5.40;4.17;;;;;;;10.87;52.40;100634.53;1778750;80;21605;-66
2020/12/27 10:57:06;;;;;;;4.58;3.90;;;;;;;10.90;52.36;100622.78;1777760;79;21198;-66
2020/12/27 10:59:33;;;;;;;4.65;3.95;;;;;;;10.92;52.29;100623.47;1776622;80;21125;-66
2020/12/27 11:02:00;;;;;;;4.35;3.87;;;;;;;10.93;52.21;100618.48;1779852;80;21194;-66
2020/12/27 11:04:28;;;;;;;4.83;3.87;;;;;;;10.94;52.16;100613.52;1765204;80;21204;-66
2020/12/27 11:06:56;;;;;;;5.72;4.25;;;;;;;10.94;52.14;100615.67;1759252;80;21168;-67
2020/12/27 11:09:23;;;;;;;4.60;4.15;;;;;;;10.94;52.09;100613.02;1716515;81;21124;-67
2020/12/27 11:11:52;;;;;;;5.40;4.05;;;;;;;10.94;52.04;100615.67;1739163;82;21156;-67
2020/12/27 11:14:19;;;;;;;4.97;4.12;;;;;;;10.93;52.06;100619.34;1739042;81;21311;-66
2020/12/27 11:16:49;;;;;;;4.15;3.40;;;;;;;10.91;52.03;100615.13;1737092;82;21195;-65
2020/12/27 11:19:17;;;;;;;5.03;3.90;;;;;;;10.92;52.03;100618.98;1738190;81;21177;-67
2020/12/27 11:21:46;;;;;;;3.92;3.27;;;;;;;10.93;52.02;100613.16;1737481;82;21620;-67
2020/12/27 11:24:16;;;;;;;5.42;3.70;;;;;;;10.93;52.01;100618.48;1734985;82;21144;-66
2020/12/27 11:26:43;;;;;;;4.85;4.10;;;;;;;10.91;51.99;100611.97;1732113;82;21202;-67
2020/12/27 11:29:11;;;;;;;4.05;3.35;;;;;;;10.92;51.98;100616.82;1736471;80;21138;-67
2020/12/27 11:31:38;;;;;;;4.03;3.50;;;;;;;10.92;51.99;100618.16;1735057;82;21171;-66
2020/12/27 11:34:06;;;;;;;3.87;3.37;;;;;;;10.92;51.99;100631.45;1766116;80;21165;-66
2020/12/27 11:36:35;;;;;;;4.62;3.62;;;;;;;10.92;52.00;100624.80;1780516;80;21619;-66
2020/12/27 11:39:03;;;;;;;4.70;3.72;;;;;;;10.91;51.98;100629.25;1778998;79;21384;-66
2020/12/27 11:41:30;;;;;;;4.30;3.10;;;;;;;10.89;51.91;100628.56;1780544;80;21154;-67
2020/12/27 11:43:58;;;;;;;4.67;3.37;;;;;;;10.89;51.89;100629.07;1780109;79;21138;-66
2020/12/27 11:46:26;;;;;;;4.92;3.60;;;;;;;10.87;51.89;100625.72;1781203;79;21181;-66
2020/12/27 11:48:53;;;;;;;4.28;3.62;;;;;;;10.85;51.89;100627.70;1779313;80;21196;-67
2020/12/27 11:51:20;;;;;;;4.25;3.77;;;;;;;10.84;51.88;100626.04;1779099;80;21365;-67
2020/12/27 11:53:51;;;;;;;3.33;2.90;;;;;;;10.82;51.91;100624.34;1780213;80;21146;-67
2020/12/27 11:56:20;;;;;;;3.95;3.10;;;;;;;10.82;51.87;100627.51;1779939;80;21145;-67